QFA859 YSSY-YSCB
Flight info
| Callsign | QFA859 |
|---|---|
| Flight time | 0h 32m |
| Altitude | 32000 |
| Route | GROOK1/16R WOL H65 LEECE LECE1A |
| Aircraft | A321/M-SDE3FGHIRWY/LB1 |
Departure
| Time | 2026-05-05 11:28 |
|---|---|
| Airport | Sydney Kingsford Smith International Airport (YSSY) |
Arrival
| Time | 2026-05-05 12:01 |
|---|---|
| Airport | Canberra Airport (YSCB) |
| Time | Latitude | Longitude | Altitude | Speed | Heading |
|---|---|---|---|---|---|
| 2026-05-05 10:49 | -33.93155 | 151.17857 | 34 ft | 0 kts | 190° |
| 2026-05-05 11:14 | -33.93152 | 151.17858 | 34 ft | 3 kts | 190° |
| 2026-05-05 11:14 | -33.93134 | 151.17862 | 34 ft | 3 kts | 190° |
| 2026-05-05 11:15 | -33.93115 | 151.17866 | 32 ft | 3 kts | 190° |
| 2026-05-05 11:15 | -33.93097 | 151.17870 | 32 ft | 3 kts | 214° |
| 2026-05-05 11:15 | -33.93087 | 151.17889 | 34 ft | 3 kts | 278° |
| 2026-05-05 11:15 | -33.93088 | 151.17894 | 34 ft | 0 kts | 282° |
| 2026-05-05 11:20 | -33.93072 | 151.17833 | 32 ft | 14 kts | 287° |
| 2026-05-05 11:21 | -33.93032 | 151.17702 | 34 ft | 13 kts | 296° |
| 2026-05-05 11:21 | -33.93005 | 151.17594 | 33 ft | 14 kts | 282° |
| 2026-05-05 11:21 | -33.92984 | 151.17467 | 30 ft | 18 kts | 281° |
| 2026-05-05 11:21 | -33.92963 | 151.17339 | 27 ft | 16 kts | 280° |
| 2026-05-05 11:22 | -33.92955 | 151.17259 | 24 ft | 0 kts | 271° |
| 2026-05-05 11:25 | -33.92955 | 151.17258 | 23 ft | 1 kts | 270° |
| 2026-05-05 11:25 | -33.92960 | 151.17214 | 23 ft | 12 kts | 254° |
| 2026-05-05 11:25 | -33.93006 | 151.17181 | 22 ft | 6 kts | 174° |
| 2026-05-05 11:26 | -33.93019 | 151.17184 | 22 ft | 0 kts | 170° |
| 2026-05-05 11:27 | -33.93132 | 151.17208 | 26 ft | 57 kts | 168° |
| 2026-05-05 11:28 | -33.93864 | 151.17396 | 21 ft | 157 kts | 168° |
| 2026-05-05 11:28 | -33.95124 | 151.17726 | 357 ft | 204 kts | 169° |
| 2026-05-05 11:28 | -33.96596 | 151.18118 | 970 ft | 234 kts | 168° |
| 2026-05-05 11:28 | -33.98250 | 151.18571 | 1787 ft | 250 kts | 167° |
| 2026-05-05 11:29 | -34.00009 | 151.19089 | 2313 ft | 272 kts | 165° |
| 2026-05-05 11:29 | -34.01270 | 151.19492 | 2692 ft | 282 kts | 165° |
| 2026-05-05 11:29 | -34.03803 | 151.20310 | 3867 ft | 281 kts | 166° |
| 2026-05-05 11:29 | -34.05583 | 151.21099 | 5274 ft | 266 kts | 154° |
| 2026-05-05 11:30 | -34.07184 | 151.22165 | 6388 ft | 267 kts | 154° |
| 2026-05-05 11:30 | -34.08742 | 151.23062 | 6752 ft | 225 kts | 157° |
| 2026-05-05 11:30 | -34.09914 | 151.24082 | 6880 ft | 196 kts | 143° |
| 2026-05-05 11:30 | -34.10957 | 151.24835 | 7070 ft | 154 kts | 163° |
| 2026-05-05 11:31 | -34.11919 | 151.25164 | 6955 ft | 137 kts | 169° |
| 2026-05-05 11:31 | -34.12934 | 151.25418 | 6701 ft | 173 kts | 173° |
| 2026-05-05 11:31 | -34.14218 | 151.25664 | 6504 ft | 197 kts | 173° |
| 2026-05-05 11:31 | -34.15594 | 151.25877 | 6330 ft | 200 kts | 171° |
| 2026-05-05 11:32 | -34.16970 | 151.26177 | 6018 ft | 199 kts | 172° |
| 2026-05-05 11:32 | -34.18320 | 151.26420 | 5795 ft | 194 kts | 174° |
| 2026-05-05 11:32 | -34.19666 | 151.26587 | 5593 ft | 208 kts | 176° |
| 2026-05-05 11:32 | -34.21359 | 151.26733 | 5550 ft | 278 kts | 177° |
| 2026-05-05 11:33 | -34.23456 | 151.26854 | 5528 ft | 305 kts | 178° |
| 2026-05-05 11:33 | -34.25494 | 151.26917 | 5427 ft | 281 kts | 181° |
| 2026-05-05 11:33 | -34.27251 | 151.26473 | 5916 ft | 234 kts | 206° |
| 2026-05-05 11:33 | -34.28356 | 151.25359 | 6533 ft | 197 kts | 227° |
| 2026-05-05 11:34 | -34.29425 | 151.24294 | 6840 ft | 216 kts | 205° |
| 2026-05-05 11:34 | -34.30861 | 151.23666 | 7103 ft | 209 kts | 221° |
| 2026-05-05 11:34 | -34.31792 | 151.22377 | 7517 ft | 207 kts | 242° |
| 2026-05-05 11:34 | -34.32426 | 151.20789 | 7961 ft | 212 kts | 247° |
| 2026-05-05 11:35 | -34.32936 | 151.19095 | 8388 ft | 217 kts | 251° |
| 2026-05-05 11:35 | -34.33570 | 151.17374 | 8616 ft | 232 kts | 241° |
| 2026-05-05 11:35 | -34.34438 | 151.15655 | 8829 ft | 247 kts | 237° |
| 2026-05-05 11:35 | -34.35422 | 151.13870 | 9029 ft | 263 kts | 236° |
| 2026-05-05 11:36 | -34.36490 | 151.12030 | 9229 ft | 277 kts | 234° |
| 2026-05-05 11:36 | -34.37649 | 151.10104 | 9496 ft | 288 kts | 234° |
| 2026-05-05 11:36 | -34.38853 | 151.08130 | 9832 ft | 294 kts | 233° |
| 2026-05-05 11:36 | -34.40084 | 151.06129 | 10235 ft | 298 kts | 233° |
| 2026-05-05 11:37 | -34.41317 | 151.04116 | 10669 ft | 298 kts | 235° |
| 2026-05-05 11:37 | -34.42501 | 151.02053 | 11159 ft | 297 kts | 236° |
| 2026-05-05 11:37 | -34.43643 | 151.00034 | 11937 ft | 283 kts | 236° |
| 2026-05-05 11:37 | -34.44722 | 150.98137 | 12891 ft | 264 kts | 236° |
| 2026-05-05 11:38 | -34.45729 | 150.96380 | 13862 ft | 244 kts | 237° |
| 2026-05-05 11:38 | -34.46647 | 150.94796 | 14747 ft | 221 kts | 237° |
| 2026-05-05 11:38 | -34.47487 | 150.93372 | 15623 ft | 193 kts | 237° |
| 2026-05-05 11:38 | -34.48207 | 150.92148 | 16460 ft | 170 kts | 239° |
| 2026-05-05 11:39 | -34.48769 | 150.90899 | 17166 ft | 169 kts | 249° |
| 2026-05-05 11:39 | -34.49149 | 150.89501 | 17559 ft | 189 kts | 255° |
| 2026-05-05 11:39 | -34.49564 | 150.87703 | 17144 ft | 252 kts | 255° |
| 2026-05-05 11:39 | -34.50077 | 150.85453 | 17050 ft | 300 kts | 255° |
| 2026-05-05 11:40 | -34.50665 | 150.82864 | 17133 ft | 337 kts | 255° |
| 2026-05-05 11:40 | -34.51520 | 150.80109 | 17580 ft | 359 kts | 236° |
| 2026-05-05 11:40 | -34.53393 | 150.78026 | 18318 ft | 376 kts | 217° |
| 2026-05-05 11:40 | -34.55497 | 150.76071 | 18646 ft | 396 kts | 223° |
| 2026-05-05 11:41 | -34.57681 | 150.73959 | 19280 ft | 406 kts | 217° |
| 2026-05-05 11:41 | -34.60007 | 150.71962 | 19910 ft | 411 kts | 223° |
| 2026-05-05 11:41 | -34.61883 | 150.69364 | 20700 ft | 410 kts | 234° |
| 2026-05-05 11:41 | -34.63609 | 150.66592 | 21507 ft | 413 kts | 235° |
| 2026-05-05 11:42 | -34.65350 | 150.63801 | 22327 ft | 415 kts | 235° |
| 2026-05-05 11:42 | -34.67101 | 150.61002 | 23017 ft | 420 kts | 235° |
| 2026-05-05 11:42 | -34.68931 | 150.58097 | 22923 ft | 441 kts | 236° |
| 2026-05-05 11:42 | -34.70668 | 150.55065 | 23299 ft | 448 kts | 238° |
| 2026-05-05 11:43 | -34.72454 | 150.51860 | 23181 ft | 466 kts | 238° |
| 2026-05-05 11:43 | -34.74300 | 150.48554 | 23515 ft | 468 kts | 237° |
| 2026-05-05 11:43 | -34.76073 | 150.45450 | 23890 ft | 431 kts | 237° |
| 2026-05-05 11:43 | -34.77752 | 150.42526 | 23618 ft | 411 kts | 237° |
| 2026-05-05 11:44 | -34.79362 | 150.39741 | 23342 ft | 394 kts | 237° |
| 2026-05-05 11:44 | -34.80913 | 150.37071 | 23059 ft | 379 kts | 237° |
| 2026-05-05 11:44 | -34.82413 | 150.34500 | 22737 ft | 366 kts | 237° |
| 2026-05-05 11:44 | -34.83872 | 150.32014 | 22378 ft | 355 kts | 237° |
| 2026-05-05 11:45 | -34.85271 | 150.29636 | 21996 ft | 346 kts | 237° |
| 2026-05-05 11:45 | -34.86660 | 150.27284 | 21609 ft | 338 kts | 236° |
| 2026-05-05 11:45 | -34.88021 | 150.24986 | 21209 ft | 331 kts | 236° |
| 2026-05-05 11:45 | -34.89357 | 150.22739 | 20790 ft | 325 kts | 236° |
| 2026-05-05 11:46 | -34.90675 | 150.20530 | 20386 ft | 320 kts | 236° |
| 2026-05-05 11:46 | -34.91977 | 150.18356 | 19970 ft | 315 kts | 236° |
| 2026-05-05 11:46 | -34.93255 | 150.16230 | 19566 ft | 311 kts | 236° |
| 2026-05-05 11:46 | -34.94528 | 150.14121 | 19136 ft | 307 kts | 235° |
| 2026-05-05 11:47 | -34.95774 | 150.12063 | 18744 ft | 304 kts | 235° |
| 2026-05-05 11:47 | -34.97024 | 150.10006 | 18307 ft | 301 kts | 234° |
| 2026-05-05 11:47 | -34.98268 | 150.07966 | 17838 ft | 298 kts | 234° |
| 2026-05-05 11:47 | -34.99502 | 150.05950 | 17369 ft | 296 kts | 234° |
| 2026-05-05 11:48 | -35.01949 | 150.01969 | 16462 ft | 291 kts | 234° |
| 2026-05-05 11:48 | -35.03163 | 150.00004 | 16004 ft | 289 kts | 234° |
| 2026-05-05 11:48 | -35.04371 | 149.98055 | 15567 ft | 287 kts | 233° |
| 2026-05-05 11:49 | -35.05575 | 149.96118 | 15137 ft | 285 kts | 233° |
| 2026-05-05 11:49 | -35.06749 | 149.94219 | 14730 ft | 282 kts | 236° |
| 2026-05-05 11:49 | -35.07599 | 149.92174 | 14822 ft | 259 kts | 248° |
| 2026-05-05 11:49 | -35.08261 | 149.90217 | 14864 ft | 241 kts | 248° |
| 2026-05-05 11:50 | -35.08889 | 149.88373 | 14723 ft | 232 kts | 247° |
| 2026-05-05 11:50 | -35.09505 | 149.86577 | 14468 ft | 227 kts | 247° |
| 2026-05-05 11:50 | -35.10114 | 149.84810 | 14189 ft | 224 kts | 247° |
| 2026-05-05 11:50 | -35.10722 | 149.83062 | 13889 ft | 223 kts | 246° |
| 2026-05-05 11:51 | -35.11328 | 149.81327 | 13558 ft | 222 kts | 246° |
| 2026-05-05 11:51 | -35.11928 | 149.79624 | 13232 ft | 221 kts | 246° |
| 2026-05-05 11:51 | -35.12537 | 149.77903 | 12901 ft | 220 kts | 246° |
| 2026-05-05 11:51 | -35.13148 | 149.76191 | 12577 ft | 220 kts | 245° |
| 2026-05-05 11:52 | -35.13760 | 149.74486 | 12266 ft | 219 kts | 245° |
| 2026-05-05 11:52 | -35.14374 | 149.72790 | 11949 ft | 218 kts | 245° |
| 2026-05-05 11:52 | -35.14990 | 149.71097 | 11646 ft | 217 kts | 245° |
| 2026-05-05 11:52 | -35.15607 | 149.69414 | 11342 ft | 217 kts | 244° |
| 2026-05-05 11:53 | -35.16226 | 149.67737 | 11031 ft | 216 kts | 244° |
| 2026-05-05 11:53 | -35.16837 | 149.66092 | 10736 ft | 215 kts | 244° |
| 2026-05-05 11:53 | -35.17459 | 149.64430 | 10446 ft | 215 kts | 244° |
| 2026-05-05 11:53 | -35.18082 | 149.62775 | 10155 ft | 214 kts | 243° |
| 2026-05-05 11:54 | -35.18706 | 149.61127 | 9839 ft | 213 kts | 243° |
| 2026-05-05 11:54 | -35.19332 | 149.59485 | 9506 ft | 213 kts | 243° |
| 2026-05-05 11:54 | -35.19964 | 149.57839 | 9166 ft | 214 kts | 243° |
| 2026-05-05 11:54 | -35.20602 | 149.56202 | 8831 ft | 213 kts | 242° |
| 2026-05-05 11:55 | -35.21245 | 149.54565 | 8510 ft | 213 kts | 242° |
| 2026-05-05 11:55 | -35.21890 | 149.52933 | 8182 ft | 213 kts | 242° |
| 2026-05-05 11:55 | -35.22546 | 149.51314 | 7865 ft | 213 kts | 242° |
| 2026-05-05 11:55 | -35.23201 | 149.49718 | 7559 ft | 213 kts | 241° |
| 2026-05-05 11:56 | -35.23867 | 149.48103 | 7251 ft | 213 kts | 241° |
| 2026-05-05 11:56 | -35.24535 | 149.46494 | 6963 ft | 212 kts | 241° |
| 2026-05-05 11:56 | -35.25216 | 149.44866 | 6711 ft | 230 kts | 241° |
| 2026-05-05 11:56 | -35.26025 | 149.42948 | 6525 ft | 274 kts | 241° |
| 2026-05-05 11:57 | -35.26935 | 149.40806 | 6221 ft | 289 kts | 240° |
| 2026-05-05 11:57 | -35.27964 | 149.38699 | 5974 ft | 290 kts | 235° |
| 2026-05-05 11:57 | -35.29105 | 149.36761 | 5772 ft | 266 kts | 231° |
| 2026-05-05 11:57 | -35.30202 | 149.35161 | 5561 ft | 234 kts | 226° |
| 2026-05-05 11:58 | -35.31249 | 149.33761 | 5245 ft | 214 kts | 225° |
| 2026-05-05 11:58 | -35.32242 | 149.32491 | 4906 ft | 200 kts | 226° |
| 2026-05-05 11:58 | -35.33120 | 149.31204 | 4705 ft | 196 kts | 232° |
| 2026-05-05 11:58 | -35.33828 | 149.29814 | 4569 ft | 189 kts | 243° |
| 2026-05-05 11:59 | -35.34310 | 149.28330 | 4333 ft | 187 kts | 253° |
| 2026-05-05 11:59 | -35.34497 | 149.26749 | 4146 ft | 196 kts | 271° |
| 2026-05-05 11:59 | -35.34238 | 149.25102 | 3903 ft | 196 kts | 290° |
| 2026-05-05 11:59 | -35.33595 | 149.23663 | 3325 ft | 197 kts | 308° |
| 2026-05-05 12:00 | -35.32694 | 149.22414 | 2726 ft | 195 kts | 313° |
| 2026-05-05 12:00 | -35.31847 | 149.21181 | 2301 ft | 184 kts | 308° |
| 2026-05-05 12:00 | -35.31057 | 149.19957 | 1921 ft | 181 kts | 311° |
| 2026-05-05 12:00 | -35.30321 | 149.18896 | 1886 ft | 125 kts | 310° |
| 2026-05-05 12:01 | -35.29973 | 149.18461 | 1886 ft | 23 kts | 288° |
| 2026-05-05 12:01 | -35.30004 | 149.18361 | 1882 ft | 30 kts | 243° |
| 2026-05-05 12:01 | -35.30045 | 149.18309 | 1880 ft | 2 kts | 194° |
| 2026-05-05 12:01 | -35.30083 | 149.18350 | 1880 ft | 14 kts | 115° |
| 2026-05-05 12:02 | -35.30140 | 149.18455 | 1880 ft | 18 kts | 130° |
| 2026-05-05 12:02 | -35.30251 | 149.18614 | 1886 ft | 32 kts | 128° |
| 2026-05-05 12:02 | -35.30383 | 149.18803 | 1884 ft | 21 kts | 132° |
| 2026-05-05 12:02 | -35.30422 | 149.18920 | 1883 ft | 14 kts | 70° |
| 2026-05-05 12:03 | -35.30365 | 149.19027 | 1880 ft | 17 kts | 43° |
| 2026-05-05 12:03 | -35.30262 | 149.19135 | 1879 ft | 22 kts | 40° |
| 2026-05-05 12:03 | -35.30187 | 149.19219 | 1880 ft | 1 kts | 78° |
| 2026-05-05 12:03 | -35.30224 | 149.19236 | 1879 ft | 8 kts | 181° |
| 2026-05-05 12:04 | -35.30324 | 149.19237 | 1881 ft | 33 kts | 180° |
| 2026-05-05 12:04 | -35.30646 | 149.19237 | 1887 ft | 35 kts | 180° |
| 2026-05-05 12:04 | -35.30849 | 149.19231 | 1884 ft | 25 kts | 194° |
| 2026-05-05 12:04 | -35.30889 | 149.19150 | 1884 ft | 10 kts | 270° |
| 2026-05-05 12:05 | -35.30891 | 149.19107 | 1883 ft | 0 kts | 282° |
| 2026-05-05 12:05 | -35.30891 | 149.19106 | 1883 ft | 0 kts | 282° |
| 2026-05-05 12:06 | -35.30893 | 149.19114 | 1884 ft | 2 kts | 282° |
| 2026-05-05 12:06 | -35.30898 | 149.19132 | 1884 ft | 2 kts | 298° |
| 2026-05-05 12:07 | -35.30906 | 149.19149 | 1877 ft | 2 kts | 307° |
| 2026-05-05 12:07 | -35.30902 | 149.19143 | 1882 ft | 3 kts | 307° |
| 2026-05-05 12:07 | -35.30901 | 149.19142 | 1881 ft | 0 kts | 307° |
| 2026-05-05 12:07 | -35.30898 | 149.19137 | 1880 ft | 2 kts | 307° |
| 2026-05-05 12:08 | -35.30890 | 149.19123 | 1877 ft | 1 kts | 306° |
| 2026-05-05 12:08 | -35.30884 | 149.19114 | 1883 ft | 0 kts | 306° |